sensor_id;sensor_type;location;lat;lon;timestamp;pressure;altitude;pressure_sealevel;temperature;humidity
24160;BME280;62385;41.594;23.808;2023-05-22T00:00:18;95048.41;;;16.60;55.62
24160;BME280;62385;41.594;23.808;2023-05-22T00:02:44;95048.97;;;16.69;55.43
24160;BME280;62385;41.594;23.808;2023-05-22T00:05:13;95047.16;;;16.88;54.69
24160;BME280;62385;41.594;23.808;2023-05-22T00:07:40;95050.34;;;16.78;55.04
24160;BME280;62385;41.594;23.808;2023-05-22T00:10:07;95047.47;;;16.73;55.79
24160;BME280;62385;41.594;23.808;2023-05-22T00:12:33;95046.81;;;16.78;56.27
24160;BME280;62385;41.594;23.808;2023-05-22T00:14:58;95034.84;;;16.55;56.60
24160;BME280;62385;41.594;23.808;2023-05-22T00:17:25;95050.16;;;16.73;56.02
24160;BME280;62385;41.594;23.808;2023-05-22T00:19:51;95036.09;;;16.78;55.68
24160;BME280;62385;41.594;23.808;2023-05-22T00:22:18;95029.34;;;16.75;56.02
24160;BME280;62385;41.594;23.808;2023-05-22T00:24:44;95042.00;;;16.61;56.73
24160;BME280;62385;41.594;23.808;2023-05-22T00:27:10;95042.94;;;16.74;56.80
24160;BME280;62385;41.594;23.808;2023-05-22T00:29:36;95039.72;;;16.65;56.90
24160;BME280;62385;41.594;23.808;2023-05-22T00:32:02;95034.56;;;16.39;60.55
24160;BME280;62385;41.594;23.808;2023-05-22T00:34:27;95038.03;;;16.14;62.26
24160;BME280;62385;41.594;23.808;2023-05-22T00:36:53;95035.03;;;15.91;64.71
24160;BME280;62385;41.594;23.808;2023-05-22T00:39:18;95039.09;;;15.62;66.38
24160;BME280;62385;41.594;23.808;2023-05-22T00:41:46;95036.47;;;15.43;67.42
24160;BME280;62385;41.594;23.808;2023-05-22T00:44:11;95042.66;;;15.56;67.21
24160;BME280;62385;41.594;23.808;2023-05-22T00:46:37;95040.78;;;15.57;67.11
24160;BME280;62385;41.594;23.808;2023-05-22T00:49:03;95045.59;;;15.22;68.79
24160;BME280;62385;41.594;23.808;2023-05-22T00:51:29;95044.06;;;15.46;68.13
24160;BME280;62385;41.594;23.808;2023-05-22T00:53:55;95045.97;;;15.39;68.82
24160;BME280;62385;41.594;23.808;2023-05-22T00:56:22;95041.69;;;15.24;69.86
24160;BME280;62385;41.594;23.808;2023-05-22T00:58:48;95040.66;;;15.32;69.39
24160;BME280;62385;41.594;23.808;2023-05-22T01:01:15;95043.72;;;15.29;68.63
24160;BME280;62385;41.594;23.808;2023-05-22T01:03:43;95033.41;;;15.39;68.72
24160;BME280;62385;41.594;23.808;2023-05-22T01:06:13;95039.41;;;15.28;68.15
24160;BME280;62385;41.594;23.808;2023-05-22T01:08:41;95038.38;;;15.29;69.03
24160;BME280;62385;41.594;23.808;2023-05-22T01:11:11;95050.06;;;15.41;69.22
24160;BME280;62385;41.594;23.808;2023-05-22T01:18:42;95043.34;;;15.12;70.01
24160;BME280;62385;41.594;23.808;2023-05-22T01:21:18;95045.19;;;15.18;69.38
24160;BME280;62385;41.594;23.808;2023-05-22T01:32:32;95041.94;;;15.03;70.49
24160;BME280;62385;41.594;23.808;2023-05-22T01:35:01;95041.34;;;15.01;70.35
24160;BME280;62385;41.594;23.808;2023-05-22T01:37:28;95038.47;;;15.03;71.41
24160;BME280;62385;41.594;23.808;2023-05-22T01:39:54;95032.31;;;14.89;70.84
24160;BME280;62385;41.594;23.808;2023-05-22T01:42:20;95028.16;;;15.00;70.61
24160;BME280;62385;41.594;23.808;2023-05-22T01:44:49;95032.91;;;14.98;70.46
24160;BME280;62385;41.594;23.808;2023-05-22T01:47:16;95021.41;;;14.84;71.23
24160;BME280;62385;41.594;23.808;2023-05-22T01:49:43;95020.78;;;14.95;70.89
24160;BME280;62385;41.594;23.808;2023-05-22T01:52:16;95015.25;;;14.90;71.23
24160;BME280;62385;41.594;23.808;2023-05-22T01:54:55;95022.22;;;14.98;70.90
24160;BME280;62385;41.594;23.808;2023-05-22T01:57:30;95010.72;;;14.91;70.65
24160;BME280;62385;41.594;23.808;2023-05-22T02:00:11;95008.22;;;14.96;69.70
24160;BME280;62385;41.594;23.808;2023-05-22T02:02:45;95006.41;;;14.83;70.38
24160;BME280;62385;41.594;23.808;2023-05-22T02:05:15;95011.38;;;14.73;70.89
24160;BME280;62385;41.594;23.808;2023-05-22T02:07:44;95017.75;;;14.52;71.02
24160;BME280;62385;41.594;23.808;2023-05-22T02:10:12;95012.81;;;14.69;71.56
24160;BME280;62385;41.594;23.808;2023-05-22T02:12:39;95003.25;;;15.12;66.29
24160;BME280;62385;41.594;23.808;2023-05-22T02:15:06;94993.53;;;15.31;65.31
24160;BME280;62385;41.594;23.808;2023-05-22T02:17:39;95014.31;;;15.29;64.89
24160;BME280;62385;41.594;23.808;2023-05-22T02:20:10;95006.09;;;15.82;61.58
24160;BME280;62385;41.594;23.808;2023-05-22T02:22:45;95001.75;;;15.30;67.18
24160;BME280;62385;41.594;23.808;2023-05-22T02:25:12;95013.41;;;14.77;70.15
24160;BME280;62385;41.594;23.808;2023-05-22T02:27:43;95018.78;;;14.51;70.90
24160;BME280;62385;41.594;23.808;2023-05-22T02:30:10;95017.94;;;14.70;70.97
24160;BME280;62385;41.594;23.808;2023-05-22T02:32:38;95013.59;;;14.83;70.21
24160;BME280;62385;41.594;23.808;2023-05-22T02:35:04;95013.59;;;14.89;70.01
24160;BME280;62385;41.594;23.808;2023-05-22T02:37:30;95015.84;;;14.92;69.52
24160;BME280;62385;41.594;23.808;2023-05-22T02:39:56;95017.50;;;14.93;69.11
24160;BME280;62385;41.594;23.808;2023-05-22T02:42:23;95012.38;;;14.78;69.96
24160;BME280;62385;41.594;23.808;2023-05-22T02:44:49;95016.69;;;14.86;69.90
24160;BME280;62385;41.594;23.808;2023-05-22T02:47:14;95020.16;;;14.87;70.20
24160;BME280;62385;41.594;23.808;2023-05-22T02:49:40;95024.09;;;14.77;70.29
24160;BME280;62385;41.594;23.808;2023-05-22T02:52:06;95018.38;;;14.74;69.68
24160;BME280;62385;41.594;23.808;2023-05-22T02:54:32;95019.34;;;14.93;69.29
24160;BME280;62385;41.594;23.808;2023-05-22T02:56:57;94999.22;;;14.77;70.32
24160;BME280;62385;41.594;23.808;2023-05-22T02:59:23;95016.47;;;14.74;70.37
24160;BME280;62385;41.594;23.808;2023-05-22T03:01:49;95006.44;;;14.63;70.70
24160;BME280;62385;41.594;23.808;2023-05-22T03:04:15;95009.13;;;14.70;71.46
24160;BME280;62385;41.594;23.808;2023-05-22T03:06:40;95001.50;;;14.73;70.76
24160;BME280;62385;41.594;23.808;2023-05-22T03:09:09;95018.38;;;14.74;71.30
24160;BME280;62385;41.594;23.808;2023-05-22T03:11:35;95006.84;;;14.67;71.40
24160;BME280;62385;41.594;23.808;2023-05-22T03:14:01;95023.28;;;14.77;70.90
24160;BME280;62385;41.594;23.808;2023-05-22T03:16:26;95026.16;;;14.62;71.85
24160;BME280;62385;41.594;23.808;2023-05-22T03:19:08;95022.28;;;14.65;71.48
24160;BME280;62385;41.594;23.808;2023-05-22T03:21:34;95016.72;;;14.73;71.03
24160;BME280;62385;41.594;23.808;2023-05-22T03:24:00;95011.78;;;14.70;71.36
24160;BME280;62385;41.594;23.808;2023-05-22T03:26:26;95021.03;;;14.67;71.97
24160;BME280;62385;41.594;23.808;2023-05-22T03:28:55;95023.06;;;14.72;71.99
24160;BME280;62385;41.594;23.808;2023-05-22T03:31:26;95018.56;;;14.72;72.28
24160;BME280;62385;41.594;23.808;2023-05-22T03:34:12;95015.28;;;14.77;71.46
24160;BME280;62385;41.594;23.808;2023-05-22T03:36:42;95015.25;;;14.70;71.55
24160;BME280;62385;41.594;23.808;2023-05-22T03:39:10;95012.19;;;14.73;72.12
24160;BME280;62385;41.594;23.808;2023-05-22T03:41:40;95019.38;;;14.73;72.56
24160;BME280;62385;41.594;23.808;2023-05-22T03:44:07;95020.22;;;14.47;72.68
24160;BME280;62385;41.594;23.808;2023-05-22T03:46:32;95017.75;;;14.65;71.23
24160;BME280;62385;41.594;23.808;2023-05-22T03:48:58;95014.63;;;14.75;70.89
24160;BME280;62385;41.594;23.808;2023-05-22T03:51:23;95028.59;;;14.84;70.61
24160;BME280;62385;41.594;23.808;2023-05-22T03:53:49;95030.03;;;14.93;70.04
24160;BME280;62385;41.594;23.808;2023-05-22T03:56:15;95031.88;;;14.92;71.10
24160;BME280;62385;41.594;23.808;2023-05-22T03:58:41;95037.47;;;14.77;71.67
24160;BME280;62385;41.594;23.808;2023-05-22T04:01:06;95043.63;;;14.78;71.66
24160;BME280;62385;41.594;23.808;2023-05-22T04:03:35;95041.97;;;14.70;71.97
24160;BME280;62385;41.594;23.808;2023-05-22T04:06:02;95038.91;;;14.73;72.32
24160;BME280;62385;41.594;23.808;2023-05-22T04:08:28;95046.94;;;14.73;72.40
24160;BME280;62385;41.594;23.808;2023-05-22T04:10:54;95043.41;;;14.79;71.27
24160;BME280;62385;41.594;23.808;2023-05-22T04:13:39;95045.88;;;14.88;71.18
24160;BME280;62385;41.594;23.808;2023-05-22T04:16:05;95055.97;;;14.86;72.53
24160;BME280;62385;41.594;23.808;2023-05-22T04:18:31;95049.97;;;14.84;72.58
24160;BME280;62385;41.594;23.808;2023-05-22T04:20:57;95057.00;;;14.71;71.95
24160;BME280;62385;41.594;23.808;2023-05-22T04:23:23;95046.31;;;14.52;72.04
24160;BME280;62385;41.594;23.808;2023-05-22T04:25:48;95052.44;;;14.78;71.33
24160;BME280;62385;41.594;23.808;2023-05-22T04:28:14;95047.28;;;15.03;65.42
24160;BME280;62385;41.594;23.808;2023-05-22T04:30:47;95041.19;;;15.54;62.64
24160;BME280;62385;41.594;23.808;2023-05-22T04:33:13;95050.69;;;15.43;69.07
24160;BME280;62385;41.594;23.808;2023-05-22T04:35:39;95053.16;;;15.38;69.65
24160;BME280;62385;41.594;23.808;2023-05-22T04:38:06;95058.53;;;15.32;70.84
24160;BME280;62385;41.594;23.808;2023-05-22T04:40:32;95052.34;;;15.51;70.45
24160;BME280;62385;41.594;23.808;2023-05-22T04:42:58;95051.91;;;15.54;70.65
24160;BME280;62385;41.594;23.808;2023-05-22T04:45:28;95051.31;;;15.52;70.95
24160;BME280;62385;41.594;23.808;2023-05-22T04:47:56;95055.16;;;15.69;70.43
24160;BME280;62385;41.594;23.808;2023-05-22T04:50:22;95058.81;;;15.81;70.22
24160;BME280;62385;41.594;23.808;2023-05-22T04:52:48;95053.50;;;15.61;70.69
24160;BME280;62385;41.594;23.808;2023-05-22T04:55:14;95055.44;;;15.92;69.80
24160;BME280;62385;41.594;23.808;2023-05-22T04:57:40;95053.28;;;16.07;67.06
24160;BME280;62385;41.594;23.808;2023-05-22T05:00:09;95043.63;;;16.38;60.98
24160;BME280;62385;41.594;23.808;2023-05-22T05:02:36;95048.84;;;16.57;57.42
24160;BME280;62385;41.594;23.808;2023-05-22T05:05:02;95048.03;;;16.82;55.94
24160;BME280;62385;41.594;23.808;2023-05-22T05:07:27;95050.94;;;17.05;55.03
24160;BME280;62385;41.594;23.808;2023-05-22T05:09:53;95050.28;;;16.85;56.76
24160;BME280;62385;41.594;23.808;2023-05-22T05:12:19;95048.25;;;17.05;55.38
24160;BME280;62385;41.594;23.808;2023-05-22T05:14:45;95052.06;;;16.91;54.66
24160;BME280;62385;41.594;23.808;2023-05-22T05:17:29;95050.00;;;16.93;55.65
24160;BME280;62385;41.594;23.808;2023-05-22T05:19:55;95051.91;;;16.86;54.07
24160;BME280;62385;41.594;23.808;2023-05-22T05:22:21;95055.38;;;17.11;54.53
24160;BME280;62385;41.594;23.808;2023-05-22T05:24:47;95056.56;;;16.97;53.40
24160;BME280;62385;41.594;23.808;2023-05-22T05:27:12;95053.09;;;16.90;54.55
24160;BME280;62385;41.594;23.808;2023-05-22T05:29:38;95060.88;;;16.98;54.71
24160;BME280;62385;41.594;23.808;2023-05-22T05:32:11;95059.72;;;17.12;53.47
24160;BME280;62385;41.594;23.808;2023-05-22T05:35:06;95054.13;;;17.14;54.12
24160;BME280;62385;41.594;23.808;2023-05-22T05:37:44;95054.75;;;17.34;53.02
24160;BME280;62385;41.594;23.808;2023-05-22T05:40:11;95063.09;;;17.44;53.19
24160;BME280;62385;41.594;23.808;2023-05-22T05:42:42;95063.00;;;17.32;52.83
24160;BME280;62385;41.594;23.808;2023-05-22T05:45:09;95050.28;;;17.64;53.20
24160;BME280;62385;41.594;23.808;2023-05-22T05:47:35;95062.94;;;17.57;53.56
24160;BME280;62385;41.594;23.808;2023-05-22T05:50:01;95068.03;;;17.65;52.47
24160;BME280;62385;41.594;23.808;2023-05-22T05:52:29;95058.88;;;17.73;52.52
24160;BME280;62385;41.594;23.808;2023-05-22T05:54:58;95063.63;;;17.89;52.39
24160;BME280;62385;41.594;23.808;2023-05-22T05:57:26;95060.88;;;17.77;52.01
24160;BME280;62385;41.594;23.808;2023-05-22T05:59:53;95063.03;;;18.05;51.94
24160;BME280;62385;41.594;23.808;2023-05-22T06:02:18;95063.22;;;18.04;51.74
24160;BME280;62385;41.594;23.808;2023-05-22T06:04:45;95068.91;;;17.95;51.19
24160;BME280;62385;41.594;23.808;2023-05-22T06:07:16;95072.69;;;18.06;50.96
24160;BME280;62385;41.594;23.808;2023-05-22T06:09:44;95082.50;;;18.01;50.88
24160;BME280;62385;41.594;23.808;2023-05-22T06:12:39;95065.75;;;18.17;50.46
24160;BME280;62385;41.594;23.808;2023-05-22T06:15:05;95083.53;;;17.99;50.29
24160;BME280;62385;41.594;23.808;2023-05-22T06:17:32;95055.78;;;18.47;49.70
24160;BME280;62385;41.594;23.808;2023-05-22T07:20:13;95052.84;;;18.78;49.76
24160;BME280;62385;41.594;23.808;2023-05-22T07:22:48;95063.50;;;18.97;49.65
24160;BME280;62385;41.594;23.808;2023-05-22T07:25:14;95061.41;;;18.87;48.74
24160;BME280;62385;41.594;23.808;2023-05-22T07:27:40;95062.78;;;19.01;48.76
24160;BME280;62385;41.594;23.808;2023-05-22T07:30:07;95048.06;;;19.15;48.77
24160;BME280;62385;41.594;23.808;2023-05-22T07:32:34;95054.41;;;19.21;48.37
24160;BME280;62385;41.594;23.808;2023-05-22T07:35:01;95049.47;;;19.18;49.09
24160;BME280;62385;41.594;23.808;2023-05-22T07:37:27;95050.63;;;19.68;48.15
24160;BME280;62385;41.594;23.808;2023-05-22T07:39:52;95041.72;;;19.68;48.04
24160;BME280;62385;41.594;23.808;2023-05-22T07:42:18;95055.56;;;19.48;48.76
24160;BME280;62385;41.594;23.808;2023-05-22T07:44:51;95044.53;;;19.38;48.17
24160;BME280;62385;41.594;23.808;2023-05-22T07:47:19;95062.34;;;19.39;47.70
24160;BME280;62385;41.594;23.808;2023-05-22T07:49:45;95058.03;;;19.50;48.14
24160;BME280;62385;41.594;23.808;2023-05-22T07:52:11;95053.81;;;19.54;47.96
24160;BME280;62385;41.594;23.808;2023-05-22T07:54:37;95051.81;;;19.38;48.97
24160;BME280;62385;41.594;23.808;2023-05-22T07:57:22;95053.56;;;19.67;48.47
24160;BME280;62385;41.594;23.808;2023-05-22T07:59:49;95055.28;;;19.73;48.12
24160;BME280;62385;41.594;23.808;2023-05-22T08:02:18;95055.06;;;19.40;48.67
24160;BME280;62385;41.594;23.808;2023-05-22T08:04:44;95073.34;;;19.03;49.64
24160;BME280;62385;41.594;23.808;2023-05-22T08:07:09;95071.56;;;18.97;49.08
24160;BME280;62385;41.594;23.808;2023-05-22T08:09:35;95073.91;;;18.93;49.12
24160;BME280;62385;41.594;23.808;2023-05-22T08:12:01;95076.91;;;18.73;50.08
24160;BME280;62385;41.594;23.808;2023-05-22T08:14:27;95081.88;;;19.00;48.99
24160;BME280;62385;41.594;23.808;2023-05-22T08:16:53;95077.47;;;18.64;50.03
24160;BME280;62385;41.594;23.808;2023-05-22T08:19:20;95075.88;;;18.63;50.71
24160;BME280;62385;41.594;23.808;2023-05-22T08:21:46;95090.59;;;18.72;50.00
24160;BME280;62385;41.594;23.808;2023-05-22T08:24:12;95089.78;;;18.41;50.70
24160;BME280;62385;41.594;23.808;2023-05-22T08:26:37;95091.38;;;18.61;50.33
24160;BME280;62385;41.594;23.808;2023-05-22T08:29:04;95091.53;;;18.66;49.84
24160;BME280;62385;41.594;23.808;2023-05-22T08:31:30;95090.69;;;18.54;50.60
24160;BME280;62385;41.594;23.808;2023-05-22T08:33:59;95079.53;;;18.92;50.33
24160;BME280;62385;41.594;23.808;2023-05-22T08:36:30;95097.53;;;18.91;50.88
24160;BME280;62385;41.594;23.808;2023-05-22T08:38:56;95090.09;;;19.28;47.82
24160;BME280;62385;41.594;23.808;2023-05-22T08:41:22;95097.09;;;19.41;47.28
24160;BME280;62385;41.594;23.808;2023-05-22T08:43:47;95100.03;;;19.27;50.63
24160;BME280;62385;41.594;23.808;2023-05-22T08:46:13;95092.84;;;19.79;47.96
24160;BME280;62385;41.594;23.808;2023-05-22T08:48:43;95099.19;;;19.85;46.30
24160;BME280;62385;41.594;23.808;2023-05-22T08:51:12;95097.44;;;20.59;45.92
24160;BME280;62385;41.594;23.808;2023-05-22T08:53:41;95083.56;;;20.67;45.07
24160;BME280;62385;41.594;23.808;2023-05-22T08:56:08;95099.91;;;19.80;45.41
24160;BME280;62385;41.594;23.808;2023-05-22T08:58:36;95096.84;;;19.77;48.37
24160;BME280;62385;41.594;23.808;2023-05-22T09:01:03;95094.78;;;19.56;47.89
24160;BME280;62385;41.594;23.808;2023-05-22T09:03:29;95103.06;;;19.31;52.80
24160;BME280;62385;41.594;23.808;2023-05-22T09:05:58;95105.97;;;18.95;51.21
24160;BME280;62385;41.594;23.808;2023-05-22T09:08:24;95110.69;;;18.69;50.90
24160;BME280;62385;41.594;23.808;2023-05-22T09:10:50;95098.22;;;18.86;50.11
24160;BME280;62385;41.594;23.808;2023-05-22T09:13:27;95105.25;;;18.87;49.00
24160;BME280;62385;41.594;23.808;2023-05-22T09:16:07;95120.44;;;18.82;50.19
24160;BME280;62385;41.594;23.808;2023-05-22T09:18:35;95110.22;;;18.61;50.18
24160;BME280;62385;41.594;23.808;2023-05-22T09:21:01;95111.50;;;18.58;50.47
24160;BME280;62385;41.594;23.808;2023-05-22T09:23:28;95107.91;;;18.76;50.71
24160;BME280;62385;41.594;23.808;2023-05-22T09:25:55;95111.56;;;18.81;51.62
24160;BME280;62385;41.594;23.808;2023-05-22T09:28:21;95118.34;;;18.84;51.79
24160;BME280;62385;41.594;23.808;2023-05-22T09:30:51;95119.63;;;18.93;52.38
24160;BME280;62385;41.594;23.808;2023-05-22T09:33:17;95117.22;;;19.03;51.20
24160;BME280;62385;41.594;23.808;2023-05-22T09:35:45;95123.78;;;19.30;50.36
24160;BME280;62385;41.594;23.808;2023-05-22T09:38:11;95128.03;;;18.85;49.52
24160;BME280;62385;41.594;23.808;2023-05-22T09:40:38;95120.72;;;18.92;49.95
24160;BME280;62385;41.594;23.808;2023-05-22T09:43:11;95120.25;;;19.18;49.57
24160;BME280;62385;41.594;23.808;2023-05-22T09:45:41;95123.53;;;19.09;49.34
24160;BME280;62385;41.594;23.808;2023-05-22T09:48:08;95100.75;;;19.69;48.97
24160;BME280;62385;41.594;23.808;2023-05-22T09:50:47;95095.31;;;20.21;49.75
24160;BME280;62385;41.594;23.808;2023-05-22T09:53:15;95099.06;;;19.80;49.52
24160;BME280;62385;41.594;23.808;2023-05-22T09:55:42;95101.41;;;19.88;49.49
24160;BME280;62385;41.594;23.808;2023-05-22T09:58:10;95096.44;;;20.08;49.00
24160;BME280;62385;41.594;23.808;2023-05-22T10:00:38;95104.75;;;19.67;48.64
24160;BME280;62385;41.594;23.808;2023-05-22T10:03:08;95102.47;;;19.87;48.18
24160;BME280;62385;41.594;23.808;2023-05-22T10:05:42;95103.44;;;20.33;48.17
24160;BME280;62385;41.594;23.808;2023-05-22T10:08:13;95079.13;;;20.61;48.05
24160;BME280;62385;41.594;23.808;2023-05-22T10:10:46;95085.88;;;20.47;46.96
24160;BME280;62385;41.594;23.808;2023-05-22T10:13:15;95087.25;;;19.81;46.89
24160;BME280;62385;41.594;23.808;2023-05-22T10:15:41;95088.44;;;20.13;46.90
24160;BME280;62385;41.594;23.808;2023-05-22T10:18:08;95096.16;;;20.21;46.99
24160;BME280;62385;41.594;23.808;2023-05-22T10:20:34;95081.66;;;20.51;47.01
24160;BME280;62385;41.594;23.808;2023-05-22T10:23:01;95092.66;;;20.33;46.19
24160;BME280;62385;41.594;23.808;2023-05-22T10:25:27;95099.75;;;19.99;46.62
24160;BME280;62385;41.594;23.808;2023-05-22T10:27:55;95094.47;;;19.92;46.55
24160;BME280;62385;41.594;23.808;2023-05-22T10:30:35;95088.78;;;20.17;46.26
24160;BME280;62385;41.594;23.808;2023-05-22T10:33:37;95077.78;;;20.18;46.54
24160;BME280;62385;41.594;23.808;2023-05-22T10:39:06;95079.03;;;20.27;45.98
24160;BME280;62385;41.594;23.808;2023-05-22T10:41:35;95067.88;;;20.36;46.49
24160;BME280;62385;41.594;23.808;2023-05-22T10:44:01;95063.84;;;20.50;46.17
24160;BME280;62385;41.594;23.808;2023-05-22T10:46:31;95070.00;;;20.62;46.28
24160;BME280;62385;41.594;23.808;2023-05-22T10:48:57;95063.06;;;20.38;46.47
24160;BME280;62385;41.594;23.808;2023-05-22T10:51:23;95045.13;;;20.60;46.88
24160;BME280;62385;41.594;23.808;2023-05-22T10:53:56;95054.91;;;20.33;46.76
24160;BME280;62385;41.594;23.808;2023-05-22T10:56:22;95059.66;;;20.02;46.50
24160;BME280;62385;41.594;23.808;2023-05-22T10:58:55;95054.44;;;20.24;46.56
24160;BME280;62385;41.594;23.808;2023-05-22T11:01:24;95050.59;;;19.80;46.69
24160;BME280;62385;41.594;23.808;2023-05-22T11:06:45;95038.75;;;19.81;46.80
24160;BME280;62385;41.594;23.808;2023-05-22T11:09:41;95041.41;;;19.53;46.85
24160;BME280;62385;41.594;23.808;2023-05-22T11:12:25;95036.13;;;19.58;47.37
24160;BME280;62385;41.594;23.808;2023-05-22T11:20:38;95043.28;;;19.92;46.68
24160;BME280;62385;41.594;23.808;2023-05-22T11:25:16;95042.66;;;20.02;46.43
24160;BME280;62385;41.594;23.808;2023-05-22T11:27:43;95040.22;;;20.00;46.81
24160;BME280;62385;41.594;23.808;2023-05-22T11:30:10;95055.56;;;20.40;46.62
24160;BME280;62385;41.594;23.808;2023-05-22T11:32:41;95046.47;;;20.74;46.19
24160;BME280;62385;41.594;23.808;2023-05-22T11:35:14;95047.56;;;20.45;46.74
24160;BME280;62385;41.594;23.808;2023-05-22T11:37:41;95045.19;;;20.48;47.25
24160;BME280;62385;41.594;23.808;2023-05-22T11:40:07;95055.47;;;20.35;46.12
24160;BME280;62385;41.594;23.808;2023-05-22T11:42:34;95053.13;;;20.55;46.73
24160;BME280;62385;41.594;23.808;2023-05-22T11:44:59;95044.91;;;20.61;47.40
24160;BME280;62385;41.594;23.808;2023-05-22T11:47:26;95053.53;;;20.47;46.89
24160;BME280;62385;41.594;23.808;2023-05-22T11:49:53;95050.88;;;20.80;47.13
24160;BME280;62385;41.594;23.808;2023-05-22T11:52:19;95050.16;;;21.18;46.82
24160;BME280;62385;41.594;23.808;2023-05-22T11:54:45;95039.09;;;21.36;45.61
24160;BME280;62385;41.594;23.808;2023-05-22T11:57:13;95039.25;;;21.30;44.15
24160;BME280;62385;41.594;23.808;2023-05-22T11:59:43;95037.63;;;21.12;44.03
24160;BME280;62385;41.594;23.808;2023-05-22T12:02:10;95036.28;;;21.48;43.38
24160;BME280;62385;41.594;23.808;2023-05-22T12:04:36;95039.91;;;21.37;45.19
24160;BME280;62385;41.594;23.808;2023-05-22T12:07:02;95040.19;;;21.18;45.62
24160;BME280;62385;41.594;23.808;2023-05-22T12:09:28;95038.78;;;20.83;46.01
24160;BME280;62385;41.594;23.808;2023-05-22T12:12:14;95040.41;;;20.84;46.38
24160;BME280;62385;41.594;23.808;2023-05-22T12:14:43;95032.66;;;21.59;43.81
24160;BME280;62385;41.594;23.808;2023-05-22T12:17:11;95029.94;;;20.87;46.32
24160;BME280;62385;41.594;23.808;2023-05-22T12:19:40;95026.84;;;20.79;46.91
24160;BME280;62385;41.594;23.808;2023-05-22T12:22:07;95021.06;;;20.42;47.38
24160;BME280;62385;41.594;23.808;2023-05-22T12:24:43;95019.47;;;20.57;47.31
24160;BME280;62385;41.594;23.808;2023-05-22T12:27:13;95019.31;;;20.97;46.53
24160;BME280;62385;41.594;23.808;2023-05-22T12:29:39;95035.50;;;20.97;45.16
24160;BME280;62385;41.594;23.808;2023-05-22T12:32:09;95020.94;;;20.98;45.72
24160;BME280;62385;41.594;23.808;2023-05-22T12:34:46;95021.44;;;20.62;45.78
24160;BME280;62385;41.594;23.808;2023-05-22T12:37:22;95021.50;;;20.67;45.92
24160;BME280;62385;41.594;23.808;2023-05-22T12:39:57;95019.81;;;21.28;45.26
24160;BME280;62385;41.594;23.808;2023-05-22T12:42:25;95015.22;;;21.28;44.61
24160;BME280;62385;41.594;23.808;2023-05-22T12:44:55;95020.63;;;20.78;44.75
24160;BME280;62385;41.594;23.808;2023-05-22T12:47:21;95019.78;;;21.11;43.58
24160;BME280;62385;41.594;23.808;2023-05-22T12:49:47;95012.06;;;21.53;42.82
24160;BME280;62385;41.594;23.808;2023-05-22T12:52:13;94998.72;;;21.46;42.88
24160;BME280;62385;41.594;23.808;2023-05-22T12:54:39;95002.25;;;22.39;42.28
24160;BME280;62385;41.594;23.808;2023-05-22T12:57:06;95002.31;;;21.95;43.79
24160;BME280;62385;41.594;23.808;2023-05-22T12:59:32;94997.38;;;22.41;41.35
24160;BME280;62385;41.594;23.808;2023-05-22T13:01:58;94995.75;;;22.13;41.22
24160;BME280;62385;41.594;23.808;2023-05-22T13:04:28;94997.03;;;22.59;41.66
24160;BME280;62385;41.594;23.808;2023-05-22T13:06:54;94994.22;;;21.95;41.83
24160;BME280;62385;41.594;23.808;2023-05-22T13:09:19;94988.72;;;22.12;42.06
24160;BME280;62385;41.594;23.808;2023-05-22T13:11:46;94996.59;;;21.48;41.19
24160;BME280;62385;41.594;23.808;2023-05-22T13:14:15;95000.91;;;21.71;42.06
24160;BME280;62385;41.594;23.808;2023-05-22T13:16:41;94998.59;;;21.36;41.76
24160;BME280;62385;41.594;23.808;2023-05-22T13:19:06;94988.69;;;21.63;40.91
24160;BME280;62385;41.594;23.808;2023-05-22T13:21:33;94994.91;;;21.26;42.32
24160;BME280;62385;41.594;23.808;2023-05-22T13:23:59;94993.78;;;20.88;42.80
24160;BME280;62385;41.594;23.808;2023-05-22T13:26:25;94989.88;;;21.12;42.95
24160;BME280;62385;41.594;23.808;2023-05-22T13:28:51;94991.78;;;21.34;43.29
24160;BME280;62385;41.594;23.808;2023-05-22T13:31:17;94996.75;;;21.03;43.30
24160;BME280;62385;41.594;23.808;2023-05-22T13:33:43;94987.16;;;21.12;43.00
24160;BME280;62385;41.594;23.808;2023-05-22T13:36:09;94984.66;;;20.72;43.69
24160;BME280;62385;41.594;23.808;2023-05-22T13:38:35;94984.97;;;20.76;44.23
24160;BME280;62385;41.594;23.808;2023-05-22T13:41:01;94985.16;;;20.69;44.17
24160;BME280;62385;41.594;23.808;2023-05-22T13:43:26;94985.28;;;20.80;45.10
24160;BME280;62385;41.594;23.808;2023-05-22T13:45:52;94984.25;;;20.64;45.77
24160;BME280;62385;41.594;23.808;2023-05-22T13:48:17;94988.41;;;20.71;45.88
24160;BME280;62385;41.594;23.808;2023-05-22T13:50:44;94985.25;;;20.58;45.99
24160;BME280;62385;41.594;23.808;2023-05-22T13:53:09;94987.03;;;20.52;46.42
24160;BME280;62385;41.594;23.808;2023-05-22T13:55:35;94990.06;;;20.27;46.25
24160;BME280;62385;41.594;23.808;2023-05-22T13:58:00;94992.50;;;20.12;45.75
24160;BME280;62385;41.594;23.808;2023-05-22T14:00:26;94981.78;;;20.17;45.84
24160;BME280;62385;41.594;23.808;2023-05-22T14:02:51;94985.31;;;20.18;45.76
24160;BME280;62385;41.594;23.808;2023-05-22T14:05:17;94978.03;;;20.18;46.05
24160;BME280;62385;41.594;23.808;2023-05-22T14:07:42;94974.91;;;20.38;46.09
24160;BME280;62385;41.594;23.808;2023-05-22T14:10:09;94972.16;;;20.21;45.37
24160;BME280;62385;41.594;23.808;2023-05-22T14:12:35;94975.44;;;20.23;45.99
24160;BME280;62385;41.594;23.808;2023-05-22T14:15:01;94968.81;;;20.14;45.61
24160;BME280;62385;41.594;23.808;2023-05-22T14:17:26;94970.50;;;20.04;45.81
24160;BME280;62385;41.594;23.808;2023-05-22T14:19:55;94975.53;;;20.28;45.89
24160;BME280;62385;41.594;23.808;2023-05-22T14:22:20;94982.81;;;20.28;46.23